sensor_id;sensor_type;location;lat;lon;timestamp;P1;durP1;ratioP1;P2;durP2;ratioP2
15230;SDS011;32569;51.762;8.564;2024-03-07T00:00:30;5.80;;;5.40;;
15230;SDS011;32569;51.762;8.564;2024-03-07T00:02:57;6.33;;;5.97;;
15230;SDS011;32569;51.762;8.564;2024-03-07T00:05:24;5.60;;;5.30;;
15230;SDS011;32569;51.762;8.564;2024-03-07T00:07:51;5.47;;;5.17;;
15230;SDS011;32569;51.762;8.564;2024-03-07T00:10:18;5.73;;;5.43;;
15230;SDS011;32569;51.762;8.564;2024-03-07T00:12:46;5.83;;;5.53;;
15230;SDS011;32569;51.762;8.564;2024-03-07T00:15:13;6.03;;;5.73;;
15230;SDS011;32569;51.762;8.564;2024-03-07T00:17:48;5.50;;;5.20;;
15230;SDS011;32569;51.762;8.564;2024-03-07T00:20:14;6.37;;;5.97;;
15230;SDS011;32569;51.762;8.564;2024-03-07T00:22:44;5.47;;;5.17;;
15230;SDS011;32569;51.762;8.564;2024-03-07T00:25:11;5.87;;;5.57;;
15230;SDS011;32569;51.762;8.564;2024-03-07T00:27:39;5.37;;;5.07;;
15230;SDS011;32569;51.762;8.564;2024-03-07T00:30:06;6.20;;;5.80;;
15230;SDS011;32569;51.762;8.564;2024-03-07T00:32:34;5.50;;;5.20;;
15230;SDS011;32569;51.762;8.564;2024-03-07T00:35:06;5.13;;;4.83;;
15230;SDS011;32569;51.762;8.564;2024-03-07T00:37:33;5.60;;;5.30;;
15230;SDS011;32569;51.762;8.564;2024-03-07T00:40:00;4.97;;;4.73;;
15230;SDS011;32569;51.762;8.564;2024-03-07T00:42:27;6.07;;;5.67;;
15230;SDS011;32569;51.762;8.564;2024-03-07T00:44:54;5.67;;;5.37;;
15230;SDS011;32569;51.762;8.564;2024-03-07T00:47:21;6.00;;;5.60;;
15230;SDS011;32569;51.762;8.564;2024-03-07T00:49:48;5.43;;;5.13;;
15230;SDS011;32569;51.762;8.564;2024-03-07T00:52:16;5.77;;;5.47;;
15230;SDS011;32569;51.762;8.564;2024-03-07T00:54:42;5.27;;;4.97;;
15230;SDS011;32569;51.762;8.564;2024-03-07T00:57:09;5.87;;;5.47;;
15230;SDS011;32569;51.762;8.564;2024-03-07T00:59:36;5.07;;;4.77;;
15230;SDS011;32569;51.762;8.564;2024-03-07T01:02:02;5.63;;;5.23;;
15230;SDS011;32569;51.762;8.564;2024-03-07T01:04:30;5.30;;;5.00;;
15230;SDS011;32569;51.762;8.564;2024-03-07T01:06:58;5.93;;;5.53;;
15230;SDS011;32569;51.762;8.564;2024-03-07T01:09:26;5.73;;;5.43;;
15230;SDS011;32569;51.762;8.564;2024-03-07T01:11:56;5.13;;;4.83;;
15230;SDS011;32569;51.762;8.564;2024-03-07T01:14:24;5.70;;;5.40;;
15230;SDS011;32569;51.762;8.564;2024-03-07T01:16:51;5.53;;;5.23;;
15230;SDS011;32569;51.762;8.564;2024-03-07T01:19:18;5.37;;;5.07;;
15230;SDS011;32569;51.762;8.564;2024-03-07T01:21:45;5.67;;;5.27;;
15230;SDS011;32569;51.762;8.564;2024-03-07T01:24:12;5.50;;;5.20;;
15230;SDS011;32569;51.762;8.564;2024-03-07T01:26:44;5.57;;;5.27;;
15230;SDS011;32569;51.762;8.564;2024-03-07T01:29:10;5.23;;;4.93;;
15230;SDS011;32569;51.762;8.564;2024-03-07T01:31:38;5.93;;;5.63;;
15230;SDS011;32569;51.762;8.564;2024-03-07T01:34:05;6.67;;;6.27;;
15230;SDS011;32569;51.762;8.564;2024-03-07T01:36:34;6.57;;;6.17;;
15230;SDS011;32569;51.762;8.564;2024-03-07T01:39:01;6.20;;;5.80;;
15230;SDS011;32569;51.762;8.564;2024-03-07T01:41:28;6.37;;;6.07;;
15230;SDS011;32569;51.762;8.564;2024-03-07T01:43:56;6.30;;;6.00;;
15230;SDS011;32569;51.762;8.564;2024-03-07T01:46:23;6.23;;;5.83;;
15230;SDS011;32569;51.762;8.564;2024-03-07T01:48:50;5.87;;;5.53;;
15230;SDS011;32569;51.762;8.564;2024-03-07T01:51:17;6.30;;;5.80;;
15230;SDS011;32569;51.762;8.564;2024-03-07T01:53:46;6.00;;;5.70;;
15230;SDS011;32569;51.762;8.564;2024-03-07T01:56:13;5.93;;;5.63;;
15230;SDS011;32569;51.762;8.564;2024-03-07T01:58:40;5.70;;;5.40;;
15230;SDS011;32569;51.762;8.564;2024-03-07T02:01:09;5.67;;;5.30;;
15230;SDS011;32569;51.762;8.564;2024-03-07T02:03:36;5.87;;;5.57;;
15230;SDS011;32569;51.762;8.564;2024-03-07T02:06:03;5.70;;;5.30;;
15230;SDS011;32569;51.762;8.564;2024-03-07T02:08:29;5.67;;;5.37;;
15230;SDS011;32569;51.762;8.564;2024-03-07T02:10:57;4.97;;;4.77;;
15230;SDS011;32569;51.762;8.564;2024-03-07T02:13:24;5.47;;;5.17;;
15230;SDS011;32569;51.762;8.564;2024-03-07T02:15:51;6.67;;;6.27;;
15230;SDS011;32569;51.762;8.564;2024-03-07T02:18:19;6.23;;;5.93;;
15230;SDS011;32569;51.762;8.564;2024-03-07T02:20:47;5.73;;;5.30;;
15230;SDS011;32569;51.762;8.564;2024-03-07T02:23:14;6.07;;;5.67;;
15230;SDS011;32569;51.762;8.564;2024-03-07T02:25:41;5.87;;;5.57;;
15230;SDS011;32569;51.762;8.564;2024-03-07T02:28:08;5.73;;;5.43;;
15230;SDS011;32569;51.762;8.564;2024-03-07T02:30:34;6.70;;;6.27;;
15230;SDS011;32569;51.762;8.564;2024-03-07T02:33:01;5.40;;;5.10;;
15230;SDS011;32569;51.762;8.564;2024-03-07T02:35:31;5.83;;;5.47;;
15230;SDS011;32569;51.762;8.564;2024-03-07T02:38:01;5.47;;;5.17;;
15230;SDS011;32569;51.762;8.564;2024-03-07T02:40:28;5.77;;;5.47;;
15230;SDS011;32569;51.762;8.564;2024-03-07T02:42:55;5.60;;;5.30;;
15230;SDS011;32569;51.762;8.564;2024-03-07T02:45:22;5.70;;;5.40;;
15230;SDS011;32569;51.762;8.564;2024-03-07T02:47:49;6.00;;;5.67;;
15230;SDS011;32569;51.762;8.564;2024-03-07T02:50:16;5.60;;;5.20;;
15230;SDS011;32569;51.762;8.564;2024-03-07T02:52:43;5.37;;;5.07;;
15230;SDS011;32569;51.762;8.564;2024-03-07T02:55:11;5.60;;;5.20;;
15230;SDS011;32569;51.762;8.564;2024-03-07T02:57:38;5.97;;;5.67;;
15230;SDS011;32569;51.762;8.564;2024-03-07T03:00:06;5.87;;;5.57;;
15230;SDS011;32569;51.762;8.564;2024-03-07T03:02:44;5.67;;;5.37;;
15230;SDS011;32569;51.762;8.564;2024-03-07T03:05:12;5.70;;;5.40;;
15230;SDS011;32569;51.762;8.564;2024-03-07T03:07:39;5.90;;;5.43;;
15230;SDS011;32569;51.762;8.564;2024-03-07T03:10:06;6.23;;;5.93;;
15230;SDS011;32569;51.762;8.564;2024-03-07T03:12:36;5.80;;;5.50;;
15230;SDS011;32569;51.762;8.564;2024-03-07T03:15:03;6.40;;;6.10;;
15230;SDS011;32569;51.762;8.564;2024-03-07T03:17:30;6.90;;;6.50;;
15230;SDS011;32569;51.762;8.564;2024-03-07T03:19:58;6.60;;;6.20;;
15230;SDS011;32569;51.762;8.564;2024-03-07T03:22:26;6.27;;;5.97;;
15230;SDS011;32569;51.762;8.564;2024-03-07T03:24:52;6.20;;;5.90;;
15230;SDS011;32569;51.762;8.564;2024-03-07T03:27:20;6.43;;;6.03;;
15230;SDS011;32569;51.762;8.564;2024-03-07T03:29:48;6.10;;;5.70;;
15230;SDS011;32569;51.762;8.564;2024-03-07T03:32:16;6.03;;;5.73;;
15230;SDS011;32569;51.762;8.564;2024-03-07T03:34:42;5.90;;;5.50;;
15230;SDS011;32569;51.762;8.564;2024-03-07T03:37:09;5.47;;;5.17;;
15230;SDS011;32569;51.762;8.564;2024-03-07T03:39:39;5.10;;;4.80;;
15230;SDS011;32569;51.762;8.564;2024-03-07T03:42:07;5.50;;;5.20;;
15230;SDS011;32569;51.762;8.564;2024-03-07T03:44:34;5.30;;;5.00;;
15230;SDS011;32569;51.762;8.564;2024-03-07T03:47:03;5.47;;;5.17;;
15230;SDS011;32569;51.762;8.564;2024-03-07T03:49:29;5.10;;;4.90;;
15230;SDS011;32569;51.762;8.564;2024-03-07T03:51:59;5.60;;;5.30;;
15230;SDS011;32569;51.762;8.564;2024-03-07T03:54:26;5.47;;;5.17;;
15230;SDS011;32569;51.762;8.564;2024-03-07T03:56:59;5.20;;;5.00;;
15230;SDS011;32569;51.762;8.564;2024-03-07T03:59:26;5.13;;;4.83;;
15230;SDS011;32569;51.762;8.564;2024-03-07T04:01:52;5.37;;;5.07;;
15230;SDS011;32569;51.762;8.564;2024-03-07T04:04:20;5.37;;;5.07;;
15230;SDS011;32569;51.762;8.564;2024-03-07T04:06:47;5.30;;;4.90;;
15230;SDS011;32569;51.762;8.564;2024-03-07T04:09:14;5.23;;;4.93;;
15230;SDS011;32569;51.762;8.564;2024-03-07T04:11:41;5.27;;;4.97;;
15230;SDS011;32569;51.762;8.564;2024-03-07T04:14:10;5.53;;;5.20;;
15230;SDS011;32569;51.762;8.564;2024-03-07T04:16:37;5.20;;;4.90;;
15230;SDS011;32569;51.762;8.564;2024-03-07T04:19:04;5.10;;;4.80;;
15230;SDS011;32569;51.762;8.564;2024-03-07T04:21:33;5.13;;;4.83;;
15230;SDS011;32569;51.762;8.564;2024-03-07T04:24:00;5.40;;;5.10;;
15230;SDS011;32569;51.762;8.564;2024-03-07T04:26:27;4.73;;;4.50;;
15230;SDS011;32569;51.762;8.564;2024-03-07T04:28:54;5.40;;;5.00;;
15230;SDS011;32569;51.762;8.564;2024-03-07T04:31:21;4.77;;;4.57;;
15230;SDS011;32569;51.762;8.564;2024-03-07T04:33:48;4.83;;;4.63;;
15230;SDS011;32569;51.762;8.564;2024-03-07T04:36:16;5.17;;;4.93;;
15230;SDS011;32569;51.762;8.564;2024-03-07T04:38:44;5.40;;;5.00;;
15230;SDS011;32569;51.762;8.564;2024-03-07T04:41:11;4.90;;;4.60;;
15230;SDS011;32569;51.762;8.564;2024-03-07T04:43:40;5.37;;;4.97;;
15230;SDS011;32569;51.762;8.564;2024-03-07T04:46:07;5.00;;;4.73;;
15230;SDS011;32569;51.762;8.564;2024-03-07T04:48:33;5.30;;;5.00;;
15230;SDS011;32569;51.762;8.564;2024-03-07T04:51:00;5.63;;;5.33;;
15230;SDS011;32569;51.762;8.564;2024-03-07T04:53:26;5.40;;;5.10;;
15230;SDS011;32569;51.762;8.564;2024-03-07T04:55:57;5.00;;;4.70;;
15230;SDS011;32569;51.762;8.564;2024-03-07T04:58:23;5.70;;;5.40;;
15230;SDS011;32569;51.762;8.564;2024-03-07T05:00:50;5.60;;;5.30;;
15230;SDS011;32569;51.762;8.564;2024-03-07T05:03:16;5.00;;;4.73;;
15230;SDS011;32569;51.762;8.564;2024-03-07T05:05:43;5.20;;;4.90;;
15230;SDS011;32569;51.762;8.564;2024-03-07T05:08:10;5.73;;;5.43;;
15230;SDS011;32569;51.762;8.564;2024-03-07T05:10:37;5.17;;;4.87;;
15230;SDS011;32569;51.762;8.564;2024-03-07T05:13:05;5.90;;;5.60;;
15230;SDS011;32569;51.762;8.564;2024-03-07T05:15:35;5.63;;;5.23;;
15230;SDS011;32569;51.762;8.564;2024-03-07T05:18:02;5.50;;;5.20;;
15230;SDS011;32569;51.762;8.564;2024-03-07T05:20:29;5.47;;;5.07;;
15230;SDS011;32569;51.762;8.564;2024-03-07T05:22:56;5.80;;;5.50;;
15230;SDS011;32569;51.762;8.564;2024-03-07T05:25:24;6.20;;;5.90;;
15230;SDS011;32569;51.762;8.564;2024-03-07T05:27:51;5.97;;;5.67;;
15230;SDS011;32569;51.762;8.564;2024-03-07T05:30:19;5.50;;;5.20;;
15230;SDS011;32569;51.762;8.564;2024-03-07T05:32:48;5.60;;;5.30;;
15230;SDS011;32569;51.762;8.564;2024-03-07T05:35:15;5.57;;;5.27;;
15230;SDS011;32569;51.762;8.564;2024-03-07T05:37:41;5.77;;;5.47;;
15230;SDS011;32569;51.762;8.564;2024-03-07T05:40:12;5.50;;;5.20;;
15230;SDS011;32569;51.762;8.564;2024-03-07T05:42:38;5.87;;;5.53;;
15230;SDS011;32569;51.762;8.564;2024-03-07T05:45:06;5.83;;;5.50;;
15230;SDS011;32569;51.762;8.564;2024-03-07T05:47:35;5.90;;;5.60;;
15230;SDS011;32569;51.762;8.564;2024-03-07T05:50:01;5.83;;;5.43;;
15230;SDS011;32569;51.762;8.564;2024-03-07T05:52:28;5.30;;;5.00;;
15230;SDS011;32569;51.762;8.564;2024-03-07T05:54:55;6.00;;;5.60;;
15230;SDS011;32569;51.762;8.564;2024-03-07T05:57:22;6.23;;;5.83;;
15230;SDS011;32569;51.762;8.564;2024-03-07T05:59:48;6.10;;;5.80;;
15230;SDS011;32569;51.762;8.564;2024-03-07T06:02:15;6.37;;;5.97;;
15230;SDS011;32569;51.762;8.564;2024-03-07T06:04:43;6.00;;;5.70;;
15230;SDS011;32569;51.762;8.564;2024-03-07T06:07:10;5.70;;;5.40;;
15230;SDS011;32569;51.762;8.564;2024-03-07T06:09:37;6.17;;;5.77;;
15230;SDS011;32569;51.762;8.564;2024-03-07T06:12:04;6.03;;;5.67;;
15230;SDS011;32569;51.762;8.564;2024-03-07T06:14:36;5.93;;;5.53;;
15230;SDS011;32569;51.762;8.564;2024-03-07T06:17:03;6.13;;;5.73;;
15230;SDS011;32569;51.762;8.564;2024-03-07T06:19:30;7.23;;;6.83;;
15230;SDS011;32569;51.762;8.564;2024-03-07T06:21:57;7.17;;;6.77;;
15230;SDS011;32569;51.762;8.564;2024-03-07T06:24:25;6.70;;;6.30;;
15230;SDS011;32569;51.762;8.564;2024-03-07T06:26:55;6.40;;;6.00;;
15230;SDS011;32569;51.762;8.564;2024-03-07T06:29:25;6.63;;;6.23;;
15230;SDS011;32569;51.762;8.564;2024-03-07T06:31:52;6.33;;;5.93;;
15230;SDS011;32569;51.762;8.564;2024-03-07T06:34:19;6.30;;;6.00;;
15230;SDS011;32569;51.762;8.564;2024-03-07T06:36:46;5.93;;;5.57;;
15230;SDS011;32569;51.762;8.564;2024-03-07T06:39:14;6.40;;;6.00;;
15230;SDS011;32569;51.762;8.564;2024-03-07T06:41:41;5.70;;;5.40;;
15230;SDS011;32569;51.762;8.564;2024-03-07T06:44:07;5.77;;;5.47;;
15230;SDS011;32569;51.762;8.564;2024-03-07T06:46:42;6.53;;;6.13;;
15230;SDS011;32569;51.762;8.564;2024-03-07T06:49:10;5.20;;;4.90;;
15230;SDS011;32569;51.762;8.564;2024-03-07T06:51:37;6.20;;;5.80;;
15230;SDS011;32569;51.762;8.564;2024-03-07T06:54:04;6.17;;;5.83;;
15230;SDS011;32569;51.762;8.564;2024-03-07T06:56:33;6.30;;;5.90;;
15230;SDS011;32569;51.762;8.564;2024-03-07T06:59:00;6.60;;;6.20;;
15230;SDS011;32569;51.762;8.564;2024-03-07T07:01:29;6.70;;;6.20;;
15230;SDS011;32569;51.762;8.564;2024-03-07T07:03:56;5.83;;;5.53;;
15230;SDS011;32569;51.762;8.564;2024-03-07T07:06:23;5.97;;;5.67;;
15230;SDS011;32569;51.762;8.564;2024-03-07T07:08:52;6.30;;;5.90;;
15230;SDS011;32569;51.762;8.564;2024-03-07T07:11:19;5.67;;;5.37;;
15230;SDS011;32569;51.762;8.564;2024-03-07T07:13:47;6.23;;;5.87;;
15230;SDS011;32569;51.762;8.564;2024-03-07T07:16:14;6.30;;;5.90;;
15230;SDS011;32569;51.762;8.564;2024-03-07T07:18:43;6.37;;;5.97;;
15230;SDS011;32569;51.762;8.564;2024-03-07T07:21:10;6.90;;;6.27;;
15230;SDS011;32569;51.762;8.564;2024-03-07T07:23:40;6.33;;;5.93;;
15230;SDS011;32569;51.762;8.564;2024-03-07T07:26:07;6.30;;;5.90;;
15230;SDS011;32569;51.762;8.564;2024-03-07T07:28:34;6.33;;;6.03;;
15230;SDS011;32569;51.762;8.564;2024-03-07T07:31:02;6.07;;;5.67;;
15230;SDS011;32569;51.762;8.564;2024-03-07T07:33:29;6.30;;;5.90;;
15230;SDS011;32569;51.762;8.564;2024-03-07T07:35:57;6.43;;;6.03;;
15230;SDS011;32569;51.762;8.564;2024-03-07T07:38:23;5.87;;;5.50;;
15230;SDS011;32569;51.762;8.564;2024-03-07T07:40:51;6.57;;;6.00;;
15230;SDS011;32569;51.762;8.564;2024-03-07T07:43:17;6.67;;;6.27;;
15230;SDS011;32569;51.762;8.564;2024-03-07T07:45:44;6.43;;;6.10;;
15230;SDS011;32569;51.762;8.564;2024-03-07T07:48:12;6.80;;;6.40;;
15230;SDS011;32569;51.762;8.564;2024-03-07T07:50:41;6.17;;;5.80;;
15230;SDS011;32569;51.762;8.564;2024-03-07T07:53:08;6.37;;;6.07;;
15230;SDS011;32569;51.762;8.564;2024-03-07T07:55:35;5.70;;;5.40;;
15230;SDS011;32569;51.762;8.564;2024-03-07T07:58:02;6.10;;;5.70;;
15230;SDS011;32569;51.762;8.564;2024-03-07T08:00:30;5.83;;;5.53;;
15230;SDS011;32569;51.762;8.564;2024-03-07T08:02:57;6.50;;;6.00;;
15230;SDS011;32569;51.762;8.564;2024-03-07T08:05:27;5.97;;;5.67;;
15230;SDS011;32569;51.762;8.564;2024-03-07T08:07:55;7.10;;;6.67;;
15230;SDS011;32569;51.762;8.564;2024-03-07T08:10:23;6.17;;;5.77;;
15230;SDS011;32569;51.762;8.564;2024-03-07T08:12:52;6.67;;;6.27;;
15230;SDS011;32569;51.762;8.564;2024-03-07T08:15:18;6.07;;;5.67;;
15230;SDS011;32569;51.762;8.564;2024-03-07T08:17:46;6.73;;;6.33;;
15230;SDS011;32569;51.762;8.564;2024-03-07T08:20:14;6.37;;;5.83;;
15230;SDS011;32569;51.762;8.564;2024-03-07T08:22:44;6.20;;;5.90;;
15230;SDS011;32569;51.762;8.564;2024-03-07T08:25:11;6.60;;;6.20;;
15230;SDS011;32569;51.762;8.564;2024-03-07T08:27:39;6.60;;;6.10;;
15230;SDS011;32569;51.762;8.564;2024-03-07T08:30:07;5.60;;;5.30;;
15230;SDS011;32569;51.762;8.564;2024-03-07T08:32:38;5.90;;;5.50;;
15230;SDS011;32569;51.762;8.564;2024-03-07T08:35:05;6.73;;;6.33;;
15230;SDS011;32569;51.762;8.564;2024-03-07T08:37:35;7.13;;;6.73;;
15230;SDS011;32569;51.762;8.564;2024-03-07T08:40:04;5.70;;;5.40;;
15230;SDS011;32569;51.762;8.564;2024-03-07T08:42:32;6.20;;;5.90;;
15230;SDS011;32569;51.762;8.564;2024-03-07T08:44:59;6.93;;;6.50;;
15230;SDS011;32569;51.762;8.564;2024-03-07T08:47:29;6.60;;;6.20;;
15230;SDS011;32569;51.762;8.564;2024-03-07T08:49:56;6.43;;;6.03;;
15230;SDS011;32569;51.762;8.564;2024-03-07T08:52:22;6.10;;;5.80;;
15230;SDS011;32569;51.762;8.564;2024-03-07T08:54:49;6.60;;;6.20;;
15230;SDS011;32569;51.762;8.564;2024-03-07T08:57:17;5.80;;;5.50;;
15230;SDS011;32569;51.762;8.564;2024-03-07T08:59:44;6.23;;;5.83;;
15230;SDS011;32569;51.762;8.564;2024-03-07T09:02:12;7.47;;;6.97;;
15230;SDS011;32569;51.762;8.564;2024-03-07T09:04:38;6.83;;;6.43;;
15230;SDS011;32569;51.762;8.564;2024-03-07T09:07:05;7.30;;;6.90;;
15230;SDS011;32569;51.762;8.564;2024-03-07T09:09:32;6.97;;;6.57;;
15230;SDS011;32569;51.762;8.564;2024-03-07T09:11:59;6.87;;;6.47;;
15230;SDS011;32569;51.762;8.564;2024-03-07T09:14:29;7.23;;;6.80;;
15230;SDS011;32569;51.762;8.564;2024-03-07T09:16:56;7.20;;;6.80;;
15230;SDS011;32569;51.762;8.564;2024-03-07T09:19:22;7.27;;;6.87;;
15230;SDS011;32569;51.762;8.564;2024-03-07T09:21:50;7.27;;;6.87;;
15230;SDS011;32569;51.762;8.564;2024-03-07T09:24:17;7.03;;;6.63;;
15230;SDS011;32569;51.762;8.564;2024-03-07T09:26:46;6.77;;;6.37;;
15230;SDS011;32569;51.762;8.564;2024-03-07T09:29:13;6.40;;;6.00;;
15230;SDS011;32569;51.762;8.564;2024-03-07T09:31:41;6.57;;;6.17;;
15230;SDS011;32569;51.762;8.564;2024-03-07T09:34:08;7.47;;;6.97;;
15230;SDS011;32569;51.762;8.564;2024-03-07T09:36:38;6.93;;;6.53;;
15230;SDS011;32569;51.762;8.564;2024-03-07T09:39:06;6.50;;;6.10;;
15230;SDS011;32569;51.762;8.564;2024-03-07T09:41:33;6.10;;;5.70;;
15230;SDS011;32569;51.762;8.564;2024-03-07T09:44:00;7.03;;;6.60;;
15230;SDS011;32569;51.762;8.564;2024-03-07T09:46:28;6.90;;;6.50;;
15230;SDS011;32569;51.762;8.564;2024-03-07T09:48:57;6.53;;;6.13;;
15230;SDS011;32569;51.762;8.564;2024-03-07T09:51:24;6.40;;;6.00;;
15230;SDS011;32569;51.762;8.564;2024-03-07T09:53:52;7.37;;;6.87;;
15230;SDS011;32569;51.762;8.564;2024-03-07T09:56:23;5.83;;;5.53;;
15230;SDS011;32569;51.762;8.564;2024-03-07T09:58:51;6.40;;;6.00;;
15230;SDS011;32569;51.762;8.564;2024-03-07T10:01:19;5.87;;;5.57;;
15230;SDS011;32569;51.762;8.564;2024-03-07T10:03:47;6.53;;;6.13;;
15230;SDS011;32569;51.762;8.564;2024-03-07T10:06:18;6.60;;;6.20;;
15230;SDS011;32569;51.762;8.564;2024-03-07T10:08:47;6.27;;;5.87;;
15230;SDS011;32569;51.762;8.564;2024-03-07T10:11:14;7.27;;;6.77;;
15230;SDS011;32569;51.762;8.564;2024-03-07T10:13:40;6.00;;;5.70;;
15230;SDS011;32569;51.762;8.564;2024-03-07T10:16:10;6.37;;;5.97;;
15230;SDS011;32569;51.762;8.564;2024-03-07T10:18:41;6.20;;;5.80;;
15230;SDS011;32569;51.762;8.564;2024-03-07T10:21:09;5.40;;;5.10;;
15230;SDS011;32569;51.762;8.564;2024-03-07T10:23:45;5.67;;;5.27;;
15230;SDS011;32569;51.762;8.564;2024-03-07T10:26:12;5.50;;;5.10;;
15230;SDS011;32569;51.762;8.564;2024-03-07T10:28:39;5.70;;;5.30;;
15230;SDS011;32569;51.762;8.564;2024-03-07T10:31:06;5.23;;;4.93;;
15230;SDS011;32569;51.762;8.564;2024-03-07T10:33:36;4.80;;;4.50;;
15230;SDS011;32569;51.762;8.564;2024-03-07T10:36:04;5.33;;;5.03;;
15230;SDS011;32569;51.762;8.564;2024-03-07T10:38:35;5.43;;;5.03;;
15230;SDS011;32569;51.762;8.564;2024-03-07T10:41:03;5.30;;;5.00;;
15230;SDS011;32569;51.762;8.564;2024-03-07T10:43:33;4.93;;;4.63;;
15230;SDS011;32569;51.762;8.564;2024-03-07T10:46:03;5.47;;;5.07;;
15230;SDS011;32569;51.762;8.564;2024-03-07T10:48:32;5.00;;;4.70;;
15230;SDS011;32569;51.762;8.564;2024-03-07T10:51:06;4.90;;;4.60;;
15230;SDS011;32569;51.762;8.564;2024-03-07T10:53:39;4.90;;;4.60;;
15230;SDS011;32569;51.762;8.564;2024-03-07T10:56:17;4.97;;;4.67;;
15230;SDS011;32569;51.762;8.564;2024-03-07T10:58:54;4.53;;;4.23;;
15230;SDS011;32569;51.762;8.564;2024-03-07T11:01:29;5.27;;;4.97;;
15230;SDS011;32569;51.762;8.564;2024-03-07T11:03:58;5.17;;;4.87;;
15230;SDS011;32569;51.762;8.564;2024-03-07T11:06:29;4.77;;;4.47;;
15230;SDS011;32569;51.762;8.564;2024-03-07T11:08:58;4.90;;;4.60;;
15230;SDS011;32569;51.762;8.564;2024-03-07T11:11:29;4.70;;;4.40;;
15230;SDS011;32569;51.762;8.564;2024-03-07T11:13:57;4.80;;;4.50;;
15230;SDS011;32569;51.762;8.564;2024-03-07T11:16:24;4.57;;;4.37;;
15230;SDS011;32569;51.762;8.564;2024-03-07T11:21:44;4.17;;;3.87;;
15230;SDS011;32569;51.762;8.564;2024-03-07T11:24:22;4.43;;;4.17;;
15230;SDS011;32569;51.762;8.564;2024-03-07T11:26:52;5.07;;;4.77;;
15230;SDS011;32569;51.762;8.564;2024-03-07T11:32:06;4.73;;;4.43;;
15230;SDS011;32569;51.762;8.564;2024-03-07T11:34:33;4.77;;;4.47;;
15230;SDS011;32569;51.762;8.564;2024-03-07T11:37:05;4.67;;;4.37;;
15230;SDS011;32569;51.762;8.564;2024-03-07T11:39:39;4.80;;;4.53;;
15230;SDS011;32569;51.762;8.564;2024-03-07T11:42:07;5.03;;;4.73;;
15230;SDS011;32569;51.762;8.564;2024-03-07T11:44:34;5.23;;;4.93;;
15230;SDS011;32569;51.762;8.564;2024-03-07T11:47:05;5.53;;;5.13;;
15230;SDS011;32569;51.762;8.564;2024-03-07T11:49:34;5.10;;;4.80;;
15230;SDS011;32569;51.762;8.564;2024-03-07T11:52:02;5.60;;;5.20;;
15230;SDS011;32569;51.762;8.564;2024-03-07T11:54:29;5.50;;;5.10;;
15230;SDS011;32569;51.762;8.564;2024-03-07T11:56:57;5.37;;;4.97;;
15230;SDS011;32569;51.762;8.564;2024-03-07T11:59:25;5.17;;;4.77;;
15230;SDS011;32569;51.762;8.564;2024-03-07T12:02:00;4.77;;;4.47;;
15230;SDS011;32569;51.762;8.564;2024-03-07T12:04:28;5.00;;;4.60;;
15230;SDS011;32569;51.762;8.564;2024-03-07T12:06:55;5.40;;;5.00;;
15230;SDS011;32569;51.762;8.564;2024-03-07T12:09:21;5.30;;;5.00;;
15230;SDS011;32569;51.762;8.564;2024-03-07T12:11:49;5.40;;;5.03;;
15230;SDS011;32569;51.762;8.564;2024-03-07T12:14:18;5.63;;;5.23;;
15230;SDS011;32569;51.762;8.564;2024-03-07T12:16:46;5.07;;;4.77;;
15230;SDS011;32569;51.762;8.564;2024-03-07T12:19:12;5.53;;;5.13;;
15230;SDS011;32569;51.762;8.564;2024-03-07T12:21:42;4.67;;;4.37;;
15230;SDS011;32569;51.762;8.564;2024-03-07T12:24:12;4.87;;;4.57;;
15230;SDS011;32569;51.762;8.564;2024-03-07T12:26:40;4.80;;;4.50;;
15230;SDS011;32569;51.762;8.564;2024-03-07T12:29:07;4.80;;;4.50;;
15230;SDS011;32569;51.762;8.564;2024-03-07T12:31:36;4.87;;;4.57;;
15230;SDS011;32569;51.762;8.564;2024-03-07T12:34:04;4.73;;;4.43;;
15230;SDS011;32569;51.762;8.564;2024-03-07T12:36:34;5.17;;;4.87;;
15230;SDS011;32569;51.762;8.564;2024-03-07T12:39:10;4.33;;;4.03;;
15230;SDS011;32569;51.762;8.564;2024-03-07T12:41:50;4.63;;;4.33;;
15230;SDS011;32569;51.762;8.564;2024-03-07T12:44:17;4.37;;;4.07;;
15230;SDS011;32569;51.762;8.564;2024-03-07T12:46:45;5.27;;;4.87;;
15230;SDS011;32569;51.762;8.564;2024-03-07T12:49:14;4.73;;;4.40;;
15230;SDS011;32569;51.762;8.564;2024-03-07T12:51:41;4.60;;;4.30;;
15230;SDS011;32569;51.762;8.564;2024-03-07T12:54:08;4.57;;;4.27;;
15230;SDS011;32569;51.762;8.564;2024-03-07T12:56:35;4.57;;;4.27;;
15230;SDS011;32569;51.762;8.564;2024-03-07T12:59:02;4.40;;;4.20;;
15230;SDS011;32569;51.762;8.564;2024-03-07T13:01:29;4.67;;;4.37;;
15230;SDS011;32569;51.762;8.564;2024-03-07T13:03:58;4.70;;;4.40;;
15230;SDS011;32569;51.762;8.564;2024-03-07T13:06:26;5.27;;;4.93;;
15230;SDS011;32569;51.762;8.564;2024-03-07T13:08:54;5.27;;;4.97;;
15230;SDS011;32569;51.762;8.564;2024-03-07T13:11:22;5.03;;;4.73;;
15230;SDS011;32569;51.762;8.564;2024-03-07T13:13:52;5.73;;;5.33;;
15230;SDS011;32569;51.762;8.564;2024-03-07T13:16:20;5.43;;;5.10;;
15230;SDS011;32569;51.762;8.564;2024-03-07T13:18:46;5.40;;;5.00;;
15230;SDS011;32569;51.762;8.564;2024-03-07T13:21:13;5.10;;;4.80;;
15230;SDS011;32569;51.762;8.564;2024-03-07T13:23:44;5.40;;;5.10;;
15230;SDS011;32569;51.762;8.564;2024-03-07T13:26:10;5.40;;;5.00;;
15230;SDS011;32569;51.762;8.564;2024-03-07T13:28:41;5.30;;;4.90;;
15230;SDS011;32569;51.762;8.564;2024-03-07T13:31:09;5.60;;;5.13;;
15230;SDS011;32569;51.762;8.564;2024-03-07T13:33:36;5.10;;;4.70;;
15230;SDS011;32569;51.762;8.564;2024-03-07T13:36:03;4.97;;;4.57;;
15230;SDS011;32569;51.762;8.564;2024-03-07T13:38:32;6.10;;;5.70;;
15230;SDS011;32569;51.762;8.564;2024-03-07T13:41:01;5.27;;;4.87;;
15230;SDS011;32569;51.762;8.564;2024-03-07T13:43:29;5.57;;;5.17;;
15230;SDS011;32569;51.762;8.564;2024-03-07T13:45:56;5.03;;;4.73;;
15230;SDS011;32569;51.762;8.564;2024-03-07T13:48:23;5.60;;;5.17;;
15230;SDS011;32569;51.762;8.564;2024-03-07T13:50:49;5.70;;;5.30;;
15230;SDS011;32569;51.762;8.564;2024-03-07T13:53:18;5.00;;;4.70;;
15230;SDS011;32569;51.762;8.564;2024-03-07T13:55:56;5.50;;;5.10;;
15230;SDS011;32569;51.762;8.564;2024-03-07T13:59:10;5.83;;;5.43;;
15230;SDS011;32569;51.762;8.564;2024-03-07T14:01:52;5.33;;;4.93;;
15230;SDS011;32569;51.762;8.564;2024-03-07T14:07:41;5.50;;;5.10;;
15230;SDS011;32569;51.762;8.564;2024-03-07T14:10:33;5.30;;;5.00;;
15230;SDS011;32569;51.762;8.564;2024-03-07T14:13:38;5.70;;;5.30;;
15230;SDS011;32569;51.762;8.564;2024-03-07T14:16:18;5.03;;;4.73;;
15230;SDS011;32569;51.762;8.564;2024-03-07T14:19:23;5.37;;;5.07;;
15230;SDS011;32569;51.762;8.564;2024-03-07T14:22:30;5.00;;;4.70;;
15230;SDS011;32569;51.762;8.564;2024-03-07T14:28:17;5.80;;;5.40;;
15230;SDS011;32569;51.762;8.564;2024-03-07T14:31:09;5.50;;;5.07;;
15230;SDS011;32569;51.762;8.564;2024-03-07T14:33:47;4.90;;;4.60;;
15230;SDS011;32569;51.762;8.564;2024-03-07T14:36:23;5.00;;;4.70;;
15230;SDS011;32569;51.762;8.564;2024-03-07T14:39:01;5.57;;;5.17;;
15230;SDS011;32569;51.762;8.564;2024-03-07T14:41:40;4.60;;;4.30;;
15230;SDS011;32569;51.762;8.564;2024-03-07T14:44:15;5.47;;;5.10;;
15230;SDS011;32569;51.762;8.564;2024-03-07T14:46:45;5.33;;;4.93;;
15230;SDS011;32569;51.762;8.564;2024-03-07T14:49:13;5.20;;;4.80;;
15230;SDS011;32569;51.762;8.564;2024-03-07T14:51:43;5.20;;;4.90;;
15230;SDS011;32569;51.762;8.564;2024-03-07T14:54:11;5.93;;;5.53;;
15230;SDS011;32569;51.762;8.564;2024-03-07T14:56:38;6.13;;;5.63;;
15230;SDS011;32569;51.762;8.564;2024-03-07T14:59:06;5.80;;;5.40;;
15230;SDS011;32569;51.762;8.564;2024-03-07T15:01:32;6.00;;;5.60;;
15230;SDS011;32569;51.762;8.564;2024-03-07T15:04:01;6.10;;;5.70;;
15230;SDS011;32569;51.762;8.564;2024-03-07T15:06:32;5.97;;;5.57;;
15230;SDS011;32569;51.762;8.564;2024-03-07T15:08:59;6.30;;;5.80;;